createdAt,value
2024-02-15T00:00:55.244Z,13.73
2024-02-15T00:03:22.724Z,16.33
2024-02-15T00:05:49.580Z,15.77
2024-02-15T00:08:16.643Z,17.10
2024-02-15T00:10:43.639Z,13.70
2024-02-15T00:13:11.508Z,13.80
2024-02-15T00:15:38.828Z,15.03
2024-02-15T00:18:07.096Z,15.63
2024-02-15T00:20:37.059Z,12.70
2024-02-15T00:23:03.843Z,13.87
2024-02-15T00:25:31.703Z,15.33
2024-02-15T00:27:58.364Z,14.63
2024-02-15T00:30:25.126Z,15.30
2024-02-15T00:32:52.664Z,16.63
2024-02-15T00:35:19.873Z,12.87
2024-02-15T00:37:46.932Z,15.97
2024-02-15T00:40:13.548Z,13.40
2024-02-15T00:42:40.533Z,14.13
2024-02-15T00:45:09.584Z,14.10
2024-02-15T00:47:40.225Z,13.53
2024-02-15T00:50:07.882Z,14.70
2024-02-15T00:52:35.520Z,13.67
2024-02-15T00:55:02.365Z,14.57
2024-02-15T00:57:29.173Z,15.93
2024-02-15T00:59:55.730Z,16.13
2024-02-15T01:02:25.223Z,16.13
2024-02-15T01:04:55.279Z,14.50
2024-02-15T01:07:21.804Z,13.40
2024-02-15T01:09:48.336Z,16.67
2024-02-15T01:12:14.806Z,14.17
2024-02-15T01:14:41.686Z,12.77
2024-02-15T01:17:09.030Z,15.00
2024-02-15T01:19:36.610Z,14.97
2024-02-15T01:22:03.797Z,17.57
2024-02-15T01:24:31.478Z,15.67
2024-02-15T01:26:58.931Z,16.17
2024-02-15T01:29:26.882Z,13.90
2024-02-15T01:31:53.822Z,15.47
2024-02-15T01:34:20.765Z,13.17
2024-02-15T01:36:49.608Z,14.73
2024-02-15T01:39:20.097Z,15.10
2024-02-15T01:41:52.283Z,14.30
2024-02-15T01:44:24.077Z,13.40
2024-02-15T01:46:50.992Z,14.00
2024-02-15T01:49:17.929Z,14.43
2024-02-15T01:51:45.841Z,13.43
2024-02-15T01:54:14.632Z,13.77
2024-02-15T01:56:41.291Z,13.03
2024-02-15T01:59:07.790Z,12.57
2024-02-15T02:01:34.526Z,13.60
2024-02-15T02:04:01.756Z,14.17
2024-02-15T02:06:29.125Z,14.37
2024-02-15T02:08:57.751Z,15.87
2024-02-15T02:11:25.452Z,16.13
2024-02-15T02:13:53.102Z,14.57
2024-02-15T02:16:30.770Z,15.03
2024-02-15T02:18:58.352Z,13.53
2024-02-15T02:21:28.625Z,14.43
2024-02-15T02:23:59.256Z,14.47
2024-02-15T02:26:26.840Z,11.97
2024-02-15T02:28:56.848Z,13.87
2024-02-15T02:31:23.477Z,16.10
2024-02-15T02:33:55.690Z,14.97
2024-02-15T02:36:22.946Z,14.07
2024-02-15T02:38:51.704Z,14.87
2024-02-15T02:41:20.536Z,14.87
2024-02-15T02:43:47.091Z,15.10
2024-02-15T02:46:14.594Z,14.93
2024-02-15T02:48:42.928Z,16.23
2024-02-15T02:51:09.668Z,14.80
2024-02-15T02:53:37.027Z,16.87
2024-02-15T02:56:05.037Z,16.87
2024-02-15T02:58:31.869Z,15.37
2024-02-15T03:01:01.702Z,15.30
2024-02-15T03:03:28.629Z,15.80
2024-02-15T03:05:58.465Z,15.20
2024-02-15T03:08:25.554Z,15.53
2024-02-15T03:10:52.351Z,16.83
2024-02-15T03:13:20.255Z,16.63
2024-02-15T03:15:49.055Z,14.90
2024-02-15T03:18:17.670Z,16.70
2024-02-15T03:20:44.799Z,19.83
2024-02-15T03:23:12.755Z,17.73
2024-02-15T03:25:39.629Z,18.13
2024-02-15T03:28:06.283Z,15.20
2024-02-15T03:30:35.772Z,15.37
2024-02-15T03:33:06.853Z,16.80
2024-02-15T03:35:34.504Z,15.40
2024-02-15T03:38:02.107Z,17.10
2024-02-15T03:40:28.908Z,15.10
2024-02-15T03:42:56.024Z,14.33
2024-02-15T03:45:27.159Z,19.90
2024-02-15T03:47:54.538Z,16.20
2024-02-15T03:50:23.020Z,15.43
2024-02-15T03:52:51.281Z,19.03
2024-02-15T03:55:18.477Z,17.50
2024-02-15T03:57:46.289Z,14.20
2024-02-15T04:00:23.150Z,17.70
2024-02-15T04:02:51.184Z,14.53
2024-02-15T04:05:20.214Z,15.03
2024-02-15T04:07:47.391Z,16.50
2024-02-15T04:10:14.017Z,18.53
2024-02-15T04:12:43.546Z,13.70
2024-02-15T04:15:14.407Z,19.37
2024-02-15T04:17:42.577Z,16.97
2024-02-15T04:20:11.382Z,17.13
2024-02-15T04:22:38.518Z,17.53
2024-02-15T04:25:11.563Z,15.80
2024-02-15T04:27:38.302Z,17.13
2024-02-15T04:30:05.584Z,15.70
2024-02-15T04:32:35.203Z,16.87
2024-02-15T04:35:03.722Z,21.43
2024-02-15T04:37:33.594Z,18.07
2024-02-15T04:40:08.966Z,15.77
2024-02-15T04:42:35.638Z,17.27
2024-02-15T04:45:02.788Z,15.70
2024-02-15T04:47:31.433Z,15.70
2024-02-15T04:49:58.079Z,20.40
2024-02-15T04:52:25.360Z,17.73
2024-02-15T04:54:52.329Z,18.73
2024-02-15T04:57:18.892Z,20.43
2024-02-15T04:59:48.392Z,16.37
2024-02-15T05:02:15.232Z,16.00
2024-02-15T05:04:43.859Z,15.07
2024-02-15T05:07:11.187Z,16.00
2024-02-15T05:09:37.973Z,17.87
2024-02-15T05:12:06.656Z,18.80
2024-02-15T05:14:34.149Z,16.83
2024-02-15T05:17:00.758Z,18.90
2024-02-15T05:19:28.752Z,15.90
2024-02-15T05:21:56.492Z,14.33
2024-02-15T05:24:23.342Z,15.13
2024-02-15T05:26:50.324Z,13.63
2024-02-15T05:29:18.076Z,15.33
2024-02-15T05:31:44.542Z,14.63
2024-02-15T05:34:15.755Z,15.23
2024-02-15T05:36:42.656Z,16.07
2024-02-15T05:39:09.442Z,13.03
2024-02-15T05:41:37.216Z,11.80
2024-02-15T05:44:08.008Z,16.50
2024-02-15T05:46:39.048Z,15.07
2024-02-15T05:49:06.430Z,17.00
2024-02-15T05:51:35.060Z,15.57
2024-02-15T05:54:02.489Z,17.80
2024-02-15T05:56:30.467Z,15.23
2024-02-15T05:58:57.188Z,15.10
2024-02-15T06:01:25.424Z,15.00
2024-02-15T06:03:56.140Z,14.17
2024-02-15T06:06:23.194Z,17.77
2024-02-15T06:08:50.122Z,16.17
2024-02-15T06:11:21.848Z,17.30
2024-02-15T06:13:48.998Z,14.93
2024-02-15T06:16:15.790Z,14.00
2024-02-15T06:18:42.726Z,14.50
2024-02-15T06:21:10.095Z,15.73
2024-02-15T06:23:37.263Z,15.20
2024-02-15T06:26:05.300Z,20.13
2024-02-15T06:28:52.149Z,17.93
2024-02-15T06:31:37.046Z,15.43
2024-02-15T06:34:22.376Z,18.43
2024-02-15T06:37:13.812Z,15.93
2024-02-15T06:39:43.788Z,15.30
2024-02-15T06:42:22.152Z,17.67
2024-02-15T06:44:50.080Z,16.93
2024-02-15T06:47:19.413Z,18.57
2024-02-15T06:49:47.707Z,16.67
2024-02-15T06:52:15.143Z,13.77
2024-02-15T06:54:43.121Z,16.53
2024-02-15T06:57:10.252Z,15.13
2024-02-15T06:59:38.373Z,18.10
2024-02-15T07:02:09.477Z,14.67
2024-02-15T07:04:38.518Z,16.27
2024-02-15T07:07:05.883Z,17.63
2024-02-15T07:09:33.660Z,19.13
2024-02-15T07:12:00.485Z,18.63
2024-02-15T07:14:29.299Z,17.03
2024-02-15T07:16:59.819Z,13.53
2024-02-15T07:19:29.147Z,17.63
2024-02-15T07:21:57.993Z,21.10
2024-02-15T07:24:28.205Z,17.80
2024-02-15T07:26:56.705Z,17.90
2024-02-15T07:29:24.905Z,19.23
2024-02-15T07:31:52.357Z,17.40
2024-02-15T07:34:19.343Z,19.20
2024-02-15T07:36:46.693Z,20.50
2024-02-15T07:39:14.816Z,18.77
2024-02-15T07:41:42.141Z,16.30
2024-02-15T07:44:09.477Z,17.80
2024-02-15T07:46:36.497Z,18.03
2024-02-15T07:49:03.342Z,20.00
2024-02-15T07:51:30.272Z,18.30
2024-02-15T07:53:57.571Z,17.80
2024-02-15T07:56:24.092Z,17.83
2024-02-15T07:58:54.104Z,16.93
2024-02-15T08:01:25.647Z,19.20
2024-02-15T08:03:55.013Z,22.50
2024-02-15T08:06:26.394Z,16.80
2024-02-15T08:08:53.740Z,18.00
2024-02-15T08:11:20.642Z,18.33
2024-02-15T08:13:51.635Z,17.67
2024-02-15T08:16:20.549Z,16.93
2024-02-15T08:18:48.389Z,17.73
2024-02-15T08:21:16.352Z,19.00
2024-02-15T08:23:44.399Z,20.03
2024-02-15T08:26:13.907Z,21.53
2024-02-15T08:28:40.409Z,18.53
2024-02-15T08:31:09.482Z,17.07
2024-02-15T08:33:37.336Z,17.30
2024-02-15T08:36:05.920Z,17.00
2024-02-15T08:38:32.472Z,16.17
2024-02-15T08:40:58.916Z,19.70
2024-02-15T08:43:25.580Z,17.67
2024-02-15T08:45:52.056Z,17.07
2024-02-15T08:48:18.762Z,15.60
2024-02-15T08:50:47.053Z,14.93
2024-02-15T08:53:13.757Z,17.47
2024-02-15T08:55:40.658Z,19.50
2024-02-15T08:58:07.194Z,16.50
2024-02-15T09:00:35.714Z,17.87
2024-02-15T09:03:03.828Z,15.90
2024-02-15T09:05:30.406Z,19.17
2024-02-15T09:07:57.228Z,17.00
2024-02-15T09:10:23.862Z,15.40
2024-02-15T09:12:51.116Z,13.87
2024-02-15T09:15:18.696Z,16.40
2024-02-15T09:17:47.370Z,16.47
2024-02-15T09:20:16.285Z,16.47
2024-02-15T09:22:50.483Z,14.13
2024-02-15T09:25:17.549Z,13.60
2024-02-15T09:27:49.214Z,16.33
2024-02-15T09:30:17.138Z,14.60
2024-02-15T09:32:44.688Z,17.13
2024-02-15T09:35:13.422Z,17.13
2024-02-15T09:37:50.502Z,15.47
2024-02-15T09:40:19.752Z,12.63
2024-02-15T09:42:48.494Z,15.67
2024-02-15T09:45:16.706Z,11.23
2024-02-15T09:47:46.068Z,12.57
2024-02-15T09:50:15.504Z,15.07
2024-02-15T09:52:46.954Z,19.30
2024-02-15T09:55:14.570Z,14.10
2024-02-15T09:57:45.705Z,12.47
2024-02-15T10:00:15.030Z,14.50
2024-02-15T10:02:45.830Z,14.17
2024-02-15T10:05:15.718Z,15.13
2024-02-15T10:07:45.410Z,12.37
2024-02-15T10:10:21.969Z,13.37
2024-02-15T10:12:49.749Z,14.77
2024-02-15T10:15:36.410Z,12.87
2024-02-15T10:18:05.687Z,13.20
2024-02-15T10:20:32.742Z,12.33
2024-02-15T10:23:02.119Z,18.00
2024-02-15T10:25:28.871Z,14.77
2024-02-15T10:28:09.531Z,14.67
2024-02-15T10:30:41.002Z,12.87
2024-02-15T10:33:11.778Z,18.00
2024-02-15T10:35:38.745Z,14.07
2024-02-15T10:38:17.215Z,12.30
2024-02-15T10:40:47.225Z,12.47
2024-02-15T10:43:14.965Z,14.37
2024-02-15T10:45:42.296Z,13.97
2024-02-15T10:48:14.390Z,11.17
2024-02-15T10:50:42.019Z,12.50
2024-02-15T10:53:28.600Z,11.80
2024-02-15T10:56:10.568Z,11.60
2024-02-15T10:58:48.027Z,11.07
2024-02-15T11:01:19.474Z,11.70
2024-02-15T11:03:56.008Z,13.13
2024-02-15T11:06:44.188Z,11.40
2024-02-15T11:09:12.486Z,9.27
2024-02-15T11:11:40.904Z,10.00
2024-02-15T11:14:30.370Z,10.00
2024-02-15T11:16:58.586Z,9.87
2024-02-15T11:19:37.626Z,10.63
2024-02-15T11:22:12.486Z,8.43
2024-02-15T11:24:47.580Z,9.17
2024-02-15T11:27:26.412Z,9.23
2024-02-15T11:30:04.325Z,11.70
2024-02-15T11:33:02.261Z,9.63
2024-02-15T11:35:31.145Z,12.07
2024-02-15T11:38:05.078Z,8.13
2024-02-15T11:40:51.674Z,9.70
2024-02-15T11:43:47.084Z,10.07
2024-02-15T11:46:15.680Z,10.03
2024-02-15T11:48:42.453Z,8.37
2024-02-15T11:51:12.523Z,9.13
2024-02-15T11:53:40.859Z,9.23
2024-02-15T11:56:11.175Z,7.13
2024-02-15T11:58:53.980Z,11.50
2024-02-15T12:01:39.273Z,8.23
2024-02-15T12:04:24.492Z,7.53
2024-02-15T12:07:16.146Z,9.17
2024-02-15T12:10:03.668Z,8.23
2024-02-15T12:12:50.529Z,7.60
2024-02-15T12:15:37.157Z,11.07
2024-02-15T12:18:38.339Z,7.20
2024-02-15T12:21:06.848Z,8.73
2024-02-15T12:23:37.009Z,10.33
2024-02-15T12:26:06.771Z,7.50
2024-02-15T12:28:33.352Z,8.00
2024-02-15T12:30:59.999Z,9.70
2024-02-15T12:33:28.719Z,6.57
2024-02-15T12:36:09.045Z,8.57
2024-02-15T12:38:38.590Z,9.93
2024-02-15T12:41:20.037Z,8.00
2024-02-15T12:43:46.547Z,10.47
2024-02-15T12:46:13.710Z,8.13
2024-02-15T12:48:42.061Z,11.93
2024-02-15T12:51:17.783Z,7.37
2024-02-15T12:53:49.923Z,10.13
2024-02-15T12:56:22.855Z,8.80
2024-02-15T12:58:49.296Z,8.63
2024-02-15T13:01:15.816Z,8.87
2024-02-15T13:03:42.290Z,12.43
2024-02-15T13:06:09.668Z,8.30
2024-02-15T13:08:37.498Z,8.87
2024-02-15T13:11:04.724Z,9.17
2024-02-15T13:13:31.540Z,8.57
2024-02-15T13:15:59.071Z,12.07
2024-02-15T13:18:27.620Z,10.27
2024-02-15T13:20:54.660Z,10.47
2024-02-15T13:23:26.338Z,10.07
2024-02-15T13:25:55.202Z,12.73
2024-02-15T13:28:21.734Z,8.97
2024-02-15T13:30:50.456Z,8.60
2024-02-15T13:33:18.378Z,10.67
2024-02-15T13:35:45.245Z,12.53
2024-02-15T13:38:16.521Z,8.43
2024-02-15T13:40:43.704Z,9.90
2024-02-15T13:43:10.489Z,8.50
2024-02-15T13:45:42.214Z,8.63
2024-02-15T13:48:11.394Z,7.67
2024-02-15T13:50:40.018Z,9.67
2024-02-15T13:53:11.277Z,9.10
2024-02-15T13:55:38.385Z,12.27
2024-02-15T13:58:07.391Z,12.27
2024-02-15T14:00:38.289Z,7.23
2024-02-15T14:03:08.232Z,9.50
2024-02-15T14:05:34.991Z,8.73
2024-02-15T14:08:03.660Z,7.20
2024-02-15T14:10:34.517Z,10.07
2024-02-15T14:13:02.662Z,10.07
2024-02-15T14:15:30.961Z,7.77
2024-02-15T14:17:58.646Z,6.67
2024-02-15T14:20:26.511Z,8.37
2024-02-15T14:22:57.672Z,8.77
2024-02-15T14:25:26.534Z,7.57
2024-02-15T14:27:55.172Z,8.00
2024-02-15T14:30:42.253Z,7.80
2024-02-15T14:35:47.060Z,7.83
2024-02-15T14:38:14.768Z,10.57
2024-02-15T14:40:49.050Z,8.37
2024-02-15T14:43:19.918Z,8.30
2024-02-15T14:45:47.341Z,7.70
2024-02-15T14:48:16.959Z,8.97
2024-02-15T14:50:44.404Z,9.50
2024-02-15T14:53:11.299Z,7.17
2024-02-15T14:55:40.238Z,8.00
2024-02-15T14:58:12.869Z,10.33
2024-02-15T15:00:43.046Z,9.53
2024-02-15T15:03:09.853Z,8.47
2024-02-15T15:05:54.932Z,6.53
2024-02-15T15:08:39.992Z,7.83
2024-02-15T15:11:25.055Z,7.07
2024-02-15T15:13:53.389Z,10.23
2024-02-15T15:16:22.325Z,8.73
2024-02-15T15:18:51.346Z,6.90
2024-02-15T15:21:18.042Z,5.77
2024-02-15T15:23:46.173Z,6.90
2024-02-15T15:26:20.738Z,8.07
2024-02-15T15:28:49.137Z,8.33
2024-02-15T15:31:16.551Z,7.57
2024-02-15T15:33:43.974Z,7.40
2024-02-15T15:36:11.938Z,6.80
2024-02-15T15:38:38.776Z,6.70
2024-02-15T15:41:10.205Z,6.10
2024-02-15T15:43:37.961Z,6.93
2024-02-15T15:46:05.498Z,7.20
2024-02-15T15:48:34.161Z,9.47
2024-02-15T15:51:02.134Z,6.70
2024-02-15T15:53:29.182Z,6.50
2024-02-15T15:55:55.882Z,7.57
2024-02-15T15:58:25.428Z,7.93
2024-02-15T16:00:52.161Z,7.50
2024-02-15T16:03:20.360Z,8.13
2024-02-15T16:05:50.932Z,8.47
2024-02-15T16:08:17.392Z,6.97
2024-02-15T16:10:43.827Z,6.77
2024-02-15T16:13:11.072Z,9.27
2024-02-15T16:15:39.139Z,6.93
2024-02-15T16:18:05.886Z,6.63
2024-02-15T16:20:32.587Z,7.10
2024-02-15T16:22:59.117Z,7.13
2024-02-15T16:25:25.895Z,8.53
2024-02-15T16:27:54.480Z,6.13
2024-02-15T16:30:20.911Z,9.70
2024-02-15T16:32:47.920Z,7.63
2024-02-15T16:35:16.074Z,8.80
2024-02-15T16:37:43.900Z,10.00
2024-02-15T16:40:13.889Z,9.40
2024-02-15T16:42:45.862Z,7.80
2024-02-15T16:45:20.807Z,6.70
2024-02-15T16:47:57.860Z,8.40
2024-02-15T16:50:26.462Z,8.13
2024-02-15T16:52:53.409Z,6.70
2024-02-15T16:55:20.894Z,7.93
2024-02-15T16:57:48.165Z,6.87
2024-02-15T17:00:19.153Z,6.53
2024-02-15T17:02:46.415Z,5.23
2024-02-15T17:05:13.240Z,7.77
2024-02-15T17:07:39.881Z,6.90
2024-02-15T17:10:07.297Z,8.67
2024-02-15T17:12:35.582Z,8.03
2024-02-15T17:15:02.136Z,8.57
2024-02-15T17:17:28.968Z,12.33
2024-02-15T17:19:55.573Z,17.90
2024-02-15T17:22:24.018Z,26.90
2024-02-15T17:24:53.846Z,24.33
2024-02-15T17:27:20.535Z,15.90
2024-02-15T17:29:47.204Z,13.53
2024-02-15T17:32:13.742Z,11.17
2024-02-15T17:34:40.366Z,11.80
2024-02-15T17:37:06.843Z,11.27
2024-02-15T17:39:33.429Z,8.50
2024-02-15T17:41:59.920Z,9.87
2024-02-15T17:44:26.443Z,8.80
2024-02-15T17:46:54.411Z,9.70
2024-02-15T17:49:21.062Z,6.60
2024-02-15T17:51:47.756Z,7.83
2024-02-15T17:54:15.647Z,7.83
2024-02-15T17:56:42.950Z,7.73
2024-02-15T17:59:11.616Z,8.73
2024-02-15T18:01:41.034Z,7.23
2024-02-15T18:04:07.640Z,5.87
2024-02-15T18:06:34.534Z,7.23
2024-02-15T18:09:01.381Z,9.23
2024-02-15T18:11:28.678Z,11.03
2024-02-15T18:13:56.325Z,18.30
2024-02-15T18:16:25.038Z,13.30
2024-02-15T18:18:53.368Z,10.60
2024-02-15T18:21:20.071Z,10.67
2024-02-15T18:23:49.924Z,10.40
2024-02-15T18:26:17.552Z,8.97
2024-02-15T18:28:44.248Z,11.90
2024-02-15T18:31:14.728Z,11.30
2024-02-15T18:33:42.798Z,9.77
2024-02-15T18:36:10.146Z,8.43
2024-02-15T18:38:37.304Z,9.93
2024-02-15T18:41:07.251Z,7.97
2024-02-15T18:43:36.964Z,7.90
2024-02-15T18:46:06.217Z,11.40
2024-02-15T18:48:33.070Z,9.10
2024-02-15T18:50:59.628Z,8.80
2024-02-15T18:53:27.017Z,9.00
2024-02-15T18:55:56.444Z,9.10
2024-02-15T18:58:26.696Z,12.00
2024-02-15T19:00:58.035Z,9.83
2024-02-15T19:03:25.947Z,10.93
2024-02-15T19:05:54.417Z,10.13
2024-02-15T19:08:21.097Z,13.03
2024-02-15T19:10:47.801Z,9.73
2024-02-15T19:13:14.741Z,10.20
2024-02-15T19:15:41.207Z,10.97
2024-02-15T19:18:08.214Z,9.60
2024-02-15T19:20:35.108Z,11.37
2024-02-15T19:23:01.591Z,9.50
2024-02-15T19:25:28.064Z,12.60
2024-02-15T19:27:54.669Z,10.17
2024-02-15T19:30:21.651Z,10.23
2024-02-15T19:32:50.318Z,9.27
2024-02-15T19:35:18.169Z,10.73
2024-02-15T19:37:47.833Z,9.13
2024-02-15T19:40:19.618Z,11.10
2024-02-15T19:42:49.197Z,9.17
2024-02-15T19:45:18.920Z,21.63
2024-02-15T19:47:50.485Z,140.33
2024-02-15T19:50:22.474Z,118.37
2024-02-15T19:52:50.123Z,75.53
2024-02-15T19:55:17.575Z,63.60
2024-02-15T19:57:44.458Z,45.63
2024-02-15T20:00:13.228Z,25.70
2024-02-15T20:02:39.809Z,15.87
2024-02-15T20:05:08.984Z,13.47
2024-02-15T20:07:38.190Z,11.97
2024-02-15T20:10:08.664Z,12.27
2024-02-15T20:12:36.034Z,10.77
2024-02-15T20:15:03.329Z,12.53
2024-02-15T20:17:30.396Z,12.00
2024-02-15T20:19:57.784Z,10.53
2024-02-15T20:22:24.263Z,12.03
2024-02-15T20:24:51.262Z,28.07
2024-02-15T20:27:22.127Z,189.53
2024-02-15T20:29:51.013Z,338.93
2024-02-15T20:32:19.815Z,129.33
2024-02-15T20:34:47.381Z,79.90
2024-02-15T20:37:14.783Z,53.43
2024-02-15T20:39:41.319Z,30.27
2024-02-15T20:42:08.296Z,21.67
2024-02-15T20:44:35.118Z,14.23
2024-02-15T20:47:05.221Z,14.33
2024-02-15T20:49:32.572Z,11.80
2024-02-15T20:51:59.759Z,12.57
2024-02-15T20:54:26.605Z,10.83
2024-02-15T20:56:53.411Z,13.27
2024-02-15T20:59:21.226Z,11.97
2024-02-15T21:01:49.119Z,12.23
2024-02-15T21:04:15.674Z,13.27
2024-02-15T21:06:42.388Z,11.27
2024-02-15T21:09:15.416Z,11.40
2024-02-15T21:11:45.008Z,10.93
2024-02-15T21:14:16.302Z,13.60
2024-02-15T21:16:43.091Z,11.50
2024-02-15T21:19:14.058Z,10.17
2024-02-15T21:21:44.538Z,11.63
2024-02-15T21:24:12.594Z,10.80
2024-02-15T21:26:49.212Z,10.40
2024-02-15T21:29:16.375Z,11.17
2024-02-15T21:31:44.254Z,10.37
2024-02-15T21:34:10.905Z,11.97
2024-02-15T21:36:37.625Z,12.27
2024-02-15T21:39:04.446Z,12.93
2024-02-15T21:41:31.069Z,10.27
2024-02-15T21:43:57.513Z,11.77
2024-02-15T21:46:23.952Z,11.10
2024-02-15T21:48:54.356Z,9.90
2024-02-15T21:51:23.425Z,10.43
2024-02-15T21:53:51.800Z,9.97
2024-02-15T21:56:20.701Z,11.73
2024-02-15T21:58:48.341Z,8.73
2024-02-15T22:01:15.122Z,12.50
2024-02-15T22:03:44.900Z,11.37
2024-02-15T22:06:14.114Z,8.63
2024-02-15T22:08:40.683Z,10.20
2024-02-15T22:11:07.574Z,9.23
2024-02-15T22:13:34.386Z,8.53
2024-02-15T22:16:00.815Z,9.23
2024-02-15T22:18:27.413Z,11.33
2024-02-15T22:20:54.018Z,11.80
2024-02-15T22:23:23.137Z,9.73
2024-02-15T22:25:52.654Z,10.97
2024-02-15T22:28:19.223Z,11.47
2024-02-15T22:30:45.785Z,10.17
2024-02-15T22:33:12.695Z,9.30
2024-02-15T22:35:39.255Z,11.63
2024-02-15T22:38:05.786Z,9.57
2024-02-15T22:40:32.298Z,8.73
2024-02-15T22:42:59.127Z,9.67
2024-02-15T22:45:26.720Z,9.73
2024-02-15T22:47:53.947Z,11.27
2024-02-15T22:50:20.799Z,12.17
2024-02-15T22:52:48.058Z,11.87
2024-02-15T22:55:16.765Z,10.80
2024-02-15T22:57:43.292Z,12.80
2024-02-15T23:00:14.631Z,9.27
2024-02-15T23:02:43.105Z,10.17
2024-02-15T23:05:10.303Z,9.37
2024-02-15T23:07:39.169Z,11.53
2024-02-15T23:10:08.042Z,11.17
2024-02-15T23:12:34.705Z,11.33
2024-02-15T23:15:02.555Z,11.50
2024-02-15T23:17:31.710Z,10.47
2024-02-15T23:19:58.356Z,9.90
2024-02-15T23:22:26.254Z,10.20
2024-02-15T23:24:52.802Z,8.23
2024-02-15T23:27:19.542Z,10.40
2024-02-15T23:29:46.061Z,9.63
2024-02-15T23:32:12.612Z,12.50
2024-02-15T23:34:39.912Z,8.70
2024-02-15T23:37:25.514Z,8.50
2024-02-15T23:40:12.424Z,9.00
2024-02-15T23:42:39.198Z,8.57
2024-02-15T23:45:06.222Z,9.03
2024-02-15T23:47:32.823Z,9.07
2024-02-15T23:50:00.088Z,8.23
2024-02-15T23:52:26.969Z,8.83
2024-02-15T23:54:53.969Z,9.47
2024-02-15T23:57:22.164Z,10.20
2024-02-15T23:59:50.923Z,9.80
